sensor_id;sensor_type;location;lat;lon;timestamp;P1;durP1;ratioP1;P2;durP2;ratioP2
32365;SDS011;18837;46.832;16.838;2023-05-16T00:02:23;2.23;;;1.97;;
32365;SDS011;18837;46.832;16.838;2023-05-16T00:04:49;2.27;;;2.00;;
32365;SDS011;18837;46.832;16.838;2023-05-16T00:07:16;3.00;;;1.83;;
32365;SDS011;18837;46.832;16.838;2023-05-16T00:09:42;2.07;;;1.87;;
32365;SDS011;18837;46.832;16.838;2023-05-16T00:12:07;2.33;;;1.83;;
32365;SDS011;18837;46.832;16.838;2023-05-16T00:14:39;1.87;;;1.70;;
32365;SDS011;18837;46.832;16.838;2023-05-16T00:17:04;1.93;;;1.60;;
32365;SDS011;18837;46.832;16.838;2023-05-16T00:19:36;4.87;;;1.90;;
32365;SDS011;18837;46.832;16.838;2023-05-16T00:22:06;2.47;;;2.00;;
32365;SDS011;18837;46.832;16.838;2023-05-16T00:24:32;1.77;;;1.67;;
32365;SDS011;18837;46.832;16.838;2023-05-16T00:26:59;2.60;;;1.93;;
32365;SDS011;18837;46.832;16.838;2023-05-16T00:32:28;1.63;;;1.53;;
32365;SDS011;18837;46.832;16.838;2023-05-16T00:35:00;2.30;;;2.00;;
32365;SDS011;18837;46.832;16.838;2023-05-16T00:37:25;2.10;;;1.90;;
32365;SDS011;18837;46.832;16.838;2023-05-16T00:39:51;2.57;;;2.00;;
32365;SDS011;18837;46.832;16.838;2023-05-16T00:42:20;2.20;;;1.80;;
32365;SDS011;18837;46.832;16.838;2023-05-16T00:44:46;2.40;;;1.90;;
32365;SDS011;18837;46.832;16.838;2023-05-16T00:47:12;1.70;;;1.60;;
32365;SDS011;18837;46.832;16.838;2023-05-16T00:49:41;1.97;;;1.77;;
32365;SDS011;18837;46.832;16.838;2023-05-16T00:52:07;2.03;;;1.73;;
32365;SDS011;18837;46.832;16.838;2023-05-16T00:54:33;1.90;;;1.57;;
32365;SDS011;18837;46.832;16.838;2023-05-16T00:57:00;2.20;;;1.90;;
32365;SDS011;18837;46.832;16.838;2023-05-16T00:59:25;2.53;;;1.90;;
32365;SDS011;18837;46.832;16.838;2023-05-16T01:01:51;1.93;;;1.67;;
32365;SDS011;18837;46.832;16.838;2023-05-16T01:09:56;1.90;;;1.50;;
32365;SDS011;18837;46.832;16.838;2023-05-16T01:15:31;1.53;;;1.33;;
32365;SDS011;18837;46.832;16.838;2023-05-16T01:18:14;1.70;;;1.60;;
32365;SDS011;18837;46.832;16.838;2023-05-16T01:21:00;2.20;;;1.50;;
32365;SDS011;18837;46.832;16.838;2023-05-16T01:26:33;2.57;;;1.60;;
32365;SDS011;18837;46.832;16.838;2023-05-16T01:29:00;1.87;;;1.50;;
32365;SDS011;18837;46.832;16.838;2023-05-16T01:31:27;1.60;;;1.20;;
32365;SDS011;18837;46.832;16.838;2023-05-16T01:33:53;1.93;;;1.73;;
32365;SDS011;18837;46.832;16.838;2023-05-16T01:43:07;1.47;;;1.37;;
32365;SDS011;18837;46.832;16.838;2023-05-16T01:45:39;1.83;;;1.43;;
32365;SDS011;18837;46.832;16.838;2023-05-16T01:48:19;1.70;;;1.60;;
32365;SDS011;18837;46.832;16.838;2023-05-16T01:50:50;1.60;;;1.50;;
32365;SDS011;18837;46.832;16.838;2023-05-16T01:53:21;1.70;;;1.40;;
32365;SDS011;18837;46.832;16.838;2023-05-16T01:55:51;1.77;;;1.50;;
32365;SDS011;18837;46.832;16.838;2023-05-16T01:58:32;1.70;;;1.47;;
32365;SDS011;18837;46.832;16.838;2023-05-16T02:01:03;1.40;;;1.30;;
32365;SDS011;18837;46.832;16.838;2023-05-16T02:03:30;1.50;;;1.40;;
32365;SDS011;18837;46.832;16.838;2023-05-16T02:05:56;1.80;;;1.70;;
32365;SDS011;18837;46.832;16.838;2023-05-16T02:08:23;1.60;;;1.40;;
32365;SDS011;18837;46.832;16.838;2023-05-16T02:10:50;2.00;;;1.53;;
32365;SDS011;18837;46.832;16.838;2023-05-16T02:19:07;1.83;;;1.40;;
32365;SDS011;18837;46.832;16.838;2023-05-16T02:21:33;1.63;;;1.50;;
32365;SDS011;18837;46.832;16.838;2023-05-16T02:23:58;1.40;;;1.30;;
32365;SDS011;18837;46.832;16.838;2023-05-16T02:26:24;1.47;;;1.37;;
32365;SDS011;18837;46.832;16.838;2023-05-16T02:28:50;1.23;;;1.13;;
32365;SDS011;18837;46.832;16.838;2023-05-16T02:31:34;1.53;;;1.40;;
32365;SDS011;18837;46.832;16.838;2023-05-16T02:34:00;1.70;;;1.30;;
32365;SDS011;18837;46.832;16.838;2023-05-16T02:36:26;1.20;;;1.10;;
32365;SDS011;18837;46.832;16.838;2023-05-16T02:38:52;1.50;;;1.40;;
32365;SDS011;18837;46.832;16.838;2023-05-16T02:41:18;2.33;;;1.27;;
32365;SDS011;18837;46.832;16.838;2023-05-16T02:43:46;1.97;;;1.30;;
32365;SDS011;18837;46.832;16.838;2023-05-16T02:51:51;2.13;;;1.10;;
32365;SDS011;18837;46.832;16.838;2023-05-16T02:54:17;1.47;;;1.20;;
32365;SDS011;18837;46.832;16.838;2023-05-16T02:56:42;1.23;;;1.10;;
32365;SDS011;18837;46.832;16.838;2023-05-16T02:59:09;1.37;;;1.10;;
32365;SDS011;18837;46.832;16.838;2023-05-16T03:01:35;1.73;;;1.23;;
32365;SDS011;18837;46.832;16.838;2023-05-16T03:04:01;2.40;;;1.50;;
32365;SDS011;18837;46.832;16.838;2023-05-16T03:06:45;1.13;;;1.03;;
32365;SDS011;18837;46.832;16.838;2023-05-16T03:09:10;2.40;;;1.30;;
32365;SDS011;18837;46.832;16.838;2023-05-16T03:11:36;1.70;;;1.40;;
32365;SDS011;18837;46.832;16.838;2023-05-16T03:14:02;1.50;;;1.23;;
32365;SDS011;18837;46.832;16.838;2023-05-16T03:16:27;1.30;;;1.10;;
32365;SDS011;18837;46.832;16.838;2023-05-16T03:18:53;1.20;;;1.10;;
32365;SDS011;18837;46.832;16.838;2023-05-16T03:24:09;1.43;;;1.00;;
32365;SDS011;18837;46.832;16.838;2023-05-16T03:29:24;1.40;;;1.30;;
32365;SDS011;18837;46.832;16.838;2023-05-16T03:31:51;1.80;;;1.47;;
32365;SDS011;18837;46.832;16.838;2023-05-16T03:34:17;1.20;;;1.10;;
32365;SDS011;18837;46.832;16.838;2023-05-16T03:36:42;1.20;;;1.10;;
32365;SDS011;18837;46.832;16.838;2023-05-16T03:39:08;1.70;;;1.30;;
32365;SDS011;18837;46.832;16.838;2023-05-16T03:41:49;1.50;;;1.40;;
32365;SDS011;18837;46.832;16.838;2023-05-16T03:44:16;1.70;;;1.60;;
32365;SDS011;18837;46.832;16.838;2023-05-16T03:46:41;1.80;;;1.30;;
32365;SDS011;18837;46.832;16.838;2023-05-16T03:49:07;1.87;;;1.20;;
32365;SDS011;18837;46.832;16.838;2023-05-16T03:51:33;1.37;;;1.27;;
32365;SDS011;18837;46.832;16.838;2023-05-16T03:53:58;2.20;;;1.30;;
32365;SDS011;18837;46.832;16.838;2023-05-16T04:02:18;2.00;;;1.30;;
32365;SDS011;18837;46.832;16.838;2023-05-16T04:04:43;1.33;;;1.23;;
32365;SDS011;18837;46.832;16.838;2023-05-16T04:07:09;1.30;;;1.13;;
32365;SDS011;18837;46.832;16.838;2023-05-16T04:09:35;2.13;;;1.47;;
32365;SDS011;18837;46.832;16.838;2023-05-16T04:12:01;1.80;;;1.70;;
32365;SDS011;18837;46.832;16.838;2023-05-16T04:14:27;1.50;;;1.40;;
32365;SDS011;18837;46.832;16.838;2023-05-16T04:16:59;2.53;;;1.57;;
32365;SDS011;18837;46.832;16.838;2023-05-16T04:19:24;1.57;;;1.40;;
32365;SDS011;18837;46.832;16.838;2023-05-16T04:21:50;1.50;;;1.40;;
32365;SDS011;18837;46.832;16.838;2023-05-16T04:24:16;2.10;;;1.53;;
32365;SDS011;18837;46.832;16.838;2023-05-16T04:26:42;1.77;;;1.67;;
32365;SDS011;18837;46.832;16.838;2023-05-16T04:29:08;2.13;;;1.73;;
32365;SDS011;18837;46.832;16.838;2023-05-16T04:34:42;2.63;;;1.70;;
32365;SDS011;18837;46.832;16.838;2023-05-16T04:37:10;3.10;;;1.60;;
32365;SDS011;18837;46.832;16.838;2023-05-16T04:39:36;1.60;;;1.47;;
32365;SDS011;18837;46.832;16.838;2023-05-16T04:42:03;1.67;;;1.50;;
32365;SDS011;18837;46.832;16.838;2023-05-16T04:44:29;1.73;;;1.63;;
32365;SDS011;18837;46.832;16.838;2023-05-16T04:46:55;1.70;;;1.60;;
32365;SDS011;18837;46.832;16.838;2023-05-16T04:49:21;1.73;;;1.50;;
32365;SDS011;18837;46.832;16.838;2023-05-16T04:51:47;2.00;;;1.80;;
32365;SDS011;18837;46.832;16.838;2023-05-16T04:54:13;2.67;;;1.70;;
32365;SDS011;18837;46.832;16.838;2023-05-16T04:56:39;2.00;;;1.80;;
32365;SDS011;18837;46.832;16.838;2023-05-16T04:59:05;1.97;;;1.77;;
32365;SDS011;18837;46.832;16.838;2023-05-16T05:01:31;1.50;;;1.40;;
32365;SDS011;18837;46.832;16.838;2023-05-16T05:03:57;1.90;;;1.80;;
32365;SDS011;18837;46.832;16.838;2023-05-16T05:06:23;1.77;;;1.67;;
32365;SDS011;18837;46.832;16.838;2023-05-16T05:08:48;2.03;;;1.80;;
32365;SDS011;18837;46.832;16.838;2023-05-16T05:11:15;2.30;;;2.10;;
32365;SDS011;18837;46.832;16.838;2023-05-16T05:13:41;1.60;;;1.50;;
32365;SDS011;18837;46.832;16.838;2023-05-16T05:16:07;1.93;;;1.73;;
32365;SDS011;18837;46.832;16.838;2023-05-16T05:18:32;2.23;;;2.03;;
32365;SDS011;18837;46.832;16.838;2023-05-16T05:21:03;2.13;;;1.80;;
32365;SDS011;18837;46.832;16.838;2023-05-16T05:23:29;2.17;;;1.77;;
32365;SDS011;18837;46.832;16.838;2023-05-16T05:25:55;2.13;;;1.73;;
32365;SDS011;18837;46.832;16.838;2023-05-16T05:28:21;2.17;;;1.90;;
32365;SDS011;18837;46.832;16.838;2023-05-16T05:30:47;2.70;;;2.37;;
32365;SDS011;18837;46.832;16.838;2023-05-16T05:33:13;2.00;;;1.80;;
32365;SDS011;18837;46.832;16.838;2023-05-16T05:35:44;2.10;;;1.60;;
32365;SDS011;18837;46.832;16.838;2023-05-16T05:38:16;2.23;;;1.90;;
32365;SDS011;18837;46.832;16.838;2023-05-16T05:40:42;2.17;;;1.97;;
32365;SDS011;18837;46.832;16.838;2023-05-16T05:43:07;2.37;;;1.80;;
32365;SDS011;18837;46.832;16.838;2023-05-16T05:45:33;3.10;;;2.13;;
32365;SDS011;18837;46.832;16.838;2023-05-16T05:47:59;2.40;;;2.20;;
32365;SDS011;18837;46.832;16.838;2023-05-16T05:50:25;1.70;;;1.60;;
32365;SDS011;18837;46.832;16.838;2023-05-16T05:52:51;2.53;;;1.83;;
32365;SDS011;18837;46.832;16.838;2023-05-16T05:55:19;2.40;;;2.20;;
32365;SDS011;18837;46.832;16.838;2023-05-16T05:57:45;2.93;;;2.63;;
32365;SDS011;18837;46.832;16.838;2023-05-16T06:00:11;2.97;;;2.30;;
32365;SDS011;18837;46.832;16.838;2023-05-16T06:02:38;2.70;;;2.50;;
32365;SDS011;18837;46.832;16.838;2023-05-16T06:05:04;2.87;;;2.47;;
32365;SDS011;18837;46.832;16.838;2023-05-16T06:07:30;2.50;;;2.30;;
32365;SDS011;18837;46.832;16.838;2023-05-16T06:10:14;2.57;;;2.37;;
32365;SDS011;18837;46.832;16.838;2023-05-16T06:15:42;2.93;;;2.70;;
32365;SDS011;18837;46.832;16.838;2023-05-16T06:18:08;2.73;;;2.53;;
32365;SDS011;18837;46.832;16.838;2023-05-16T06:20:33;2.87;;;2.57;;
32365;SDS011;18837;46.832;16.838;2023-05-16T06:23:00;2.63;;;2.43;;
32365;SDS011;18837;46.832;16.838;2023-05-16T06:25:25;4.03;;;2.63;;
32365;SDS011;18837;46.832;16.838;2023-05-16T06:27:51;2.47;;;2.27;;
32365;SDS011;18837;46.832;16.838;2023-05-16T06:30:32;2.60;;;2.40;;
32365;SDS011;18837;46.832;16.838;2023-05-16T06:32:58;2.90;;;2.70;;
32365;SDS011;18837;46.832;16.838;2023-05-16T06:35:24;3.60;;;2.20;;
32365;SDS011;18837;46.832;16.838;2023-05-16T06:37:50;2.67;;;2.47;;
32365;SDS011;18837;46.832;16.838;2023-05-16T06:40:15;2.90;;;2.60;;
32365;SDS011;18837;46.832;16.838;2023-05-16T06:42:41;3.20;;;2.87;;
32365;SDS011;18837;46.832;16.838;2023-05-16T06:50:47;3.10;;;2.80;;
32365;SDS011;18837;46.832;16.838;2023-05-16T06:53:15;2.87;;;2.67;;
32365;SDS011;18837;46.832;16.838;2023-05-16T06:55:42;3.00;;;2.70;;
32365;SDS011;18837;46.832;16.838;2023-05-16T06:58:08;2.60;;;2.40;;
32365;SDS011;18837;46.832;16.838;2023-05-16T07:00:34;4.30;;;2.43;;
32365;SDS011;18837;46.832;16.838;2023-05-16T07:03:00;2.60;;;2.27;;
32365;SDS011;18837;46.832;16.838;2023-05-16T07:05:28;2.90;;;2.67;;
32365;SDS011;18837;46.832;16.838;2023-05-16T07:07:54;2.77;;;2.37;;
32365;SDS011;18837;46.832;16.838;2023-05-16T07:10:20;3.00;;;2.80;;
32365;SDS011;18837;46.832;16.838;2023-05-16T07:12:46;3.63;;;2.73;;
32365;SDS011;18837;46.832;16.838;2023-05-16T07:15:12;2.80;;;2.60;;
32365;SDS011;18837;46.832;16.838;2023-05-16T07:17:38;3.00;;;2.70;;
32365;SDS011;18837;46.832;16.838;2023-05-16T07:23:07;3.43;;;2.80;;
32365;SDS011;18837;46.832;16.838;2023-05-16T07:25:33;2.27;;;2.07;;
32365;SDS011;18837;46.832;16.838;2023-05-16T07:28:00;2.97;;;2.63;;
32365;SDS011;18837;46.832;16.838;2023-05-16T07:30:26;2.83;;;2.33;;
32365;SDS011;18837;46.832;16.838;2023-05-16T07:32:52;3.20;;;2.90;;
32365;SDS011;18837;46.832;16.838;2023-05-16T07:35:18;3.10;;;2.73;;
32365;SDS011;18837;46.832;16.838;2023-05-16T07:38:03;3.17;;;2.60;;
32365;SDS011;18837;46.832;16.838;2023-05-16T07:40:29;3.10;;;2.80;;
32365;SDS011;18837;46.832;16.838;2023-05-16T07:42:55;2.60;;;2.40;;
32365;SDS011;18837;46.832;16.838;2023-05-16T07:45:21;2.70;;;2.43;;
32365;SDS011;18837;46.832;16.838;2023-05-16T07:47:47;3.23;;;2.93;;
32365;SDS011;18837;46.832;16.838;2023-05-16T07:50:13;3.17;;;2.60;;
32365;SDS011;18837;46.832;16.838;2023-05-16T07:52:39;2.73;;;2.53;;
32365;SDS011;18837;46.832;16.838;2023-05-16T07:58:06;2.77;;;2.57;;
32365;SDS011;18837;46.832;16.838;2023-05-16T08:00:31;3.50;;;2.60;;
32365;SDS011;18837;46.832;16.838;2023-05-16T08:02:57;2.73;;;2.53;;
32365;SDS011;18837;46.832;16.838;2023-05-16T08:05:23;2.97;;;2.77;;
32365;SDS011;18837;46.832;16.838;2023-05-16T08:07:49;3.20;;;3.00;;
32365;SDS011;18837;46.832;16.838;2023-05-16T08:10:15;2.87;;;2.67;;
32365;SDS011;18837;46.832;16.838;2023-05-16T08:15:26;3.23;;;2.93;;
32365;SDS011;18837;46.832;16.838;2023-05-16T08:17:58;3.27;;;3.07;;
32365;SDS011;18837;46.832;16.838;2023-05-16T08:20:25;2.67;;;2.47;;
32365;SDS011;18837;46.832;16.838;2023-05-16T08:22:51;3.20;;;2.90;;
32365;SDS011;18837;46.832;16.838;2023-05-16T08:25:17;2.93;;;2.73;;
32365;SDS011;18837;46.832;16.838;2023-05-16T08:27:55;3.00;;;2.70;;
32365;SDS011;18837;46.832;16.838;2023-05-16T08:33:21;3.03;;;2.83;;
32365;SDS011;18837;46.832;16.838;2023-05-16T08:35:47;3.10;;;2.90;;
32365;SDS011;18837;46.832;16.838;2023-05-16T08:38:16;3.10;;;2.90;;
32365;SDS011;18837;46.832;16.838;2023-05-16T08:40:42;3.40;;;2.43;;
32365;SDS011;18837;46.832;16.838;2023-05-16T08:43:09;3.30;;;3.00;;
32365;SDS011;18837;46.832;16.838;2023-05-16T08:45:35;4.33;;;2.90;;
32365;SDS011;18837;46.832;16.838;2023-05-16T08:48:07;2.90;;;2.70;;
32365;SDS011;18837;46.832;16.838;2023-05-16T08:50:35;3.10;;;2.90;;
32365;SDS011;18837;46.832;16.838;2023-05-16T08:53:03;3.57;;;3.20;;
32365;SDS011;18837;46.832;16.838;2023-05-16T08:55:31;3.17;;;2.87;;
32365;SDS011;18837;46.832;16.838;2023-05-16T08:57:57;3.80;;;2.90;;
32365;SDS011;18837;46.832;16.838;2023-05-16T09:00:26;3.37;;;3.07;;
32365;SDS011;18837;46.832;16.838;2023-05-16T09:02:58;3.70;;;2.80;;
32365;SDS011;18837;46.832;16.838;2023-05-16T09:08:24;3.70;;;2.90;;
32365;SDS011;18837;46.832;16.838;2023-05-16T09:10:53;3.00;;;2.73;;
32365;SDS011;18837;46.832;16.838;2023-05-16T09:13:19;3.00;;;2.70;;
32365;SDS011;18837;46.832;16.838;2023-05-16T09:16:06;2.87;;;2.67;;
32365;SDS011;18837;46.832;16.838;2023-05-16T09:18:55;3.13;;;2.80;;
32365;SDS011;18837;46.832;16.838;2023-05-16T09:24:08;3.37;;;3.07;;
32365;SDS011;18837;46.832;16.838;2023-05-16T09:26:35;3.33;;;3.03;;
32365;SDS011;18837;46.832;16.838;2023-05-16T09:29:11;3.40;;;3.10;;
32365;SDS011;18837;46.832;16.838;2023-05-16T09:31:37;3.43;;;3.10;;
32365;SDS011;18837;46.832;16.838;2023-05-16T09:34:07;3.47;;;3.17;;
32365;SDS011;18837;46.832;16.838;2023-05-16T09:36:35;4.00;;;3.60;;
32365;SDS011;18837;46.832;16.838;2023-05-16T09:42:03;6.70;;;3.83;;
32365;SDS011;18837;46.832;16.838;2023-05-16T09:44:29;5.37;;;4.07;;
32365;SDS011;18837;46.832;16.838;2023-05-16T09:46:56;4.67;;;4.27;;
32365;SDS011;18837;46.832;16.838;2023-05-16T09:49:22;4.70;;;4.30;;
32365;SDS011;18837;46.832;16.838;2023-05-16T09:51:48;4.70;;;4.30;;
32365;SDS011;18837;46.832;16.838;2023-05-16T09:54:15;4.70;;;4.20;;
32365;SDS011;18837;46.832;16.838;2023-05-16T09:56:59;4.43;;;4.03;;
32365;SDS011;18837;46.832;16.838;2023-05-16T09:59:29;4.53;;;4.13;;
32365;SDS011;18837;46.832;16.838;2023-05-16T10:01:59;4.30;;;3.90;;
32365;SDS011;18837;46.832;16.838;2023-05-16T10:04:25;4.83;;;4.43;;
32365;SDS011;18837;46.832;16.838;2023-05-16T10:06:52;4.63;;;4.23;;
32365;SDS011;18837;46.832;16.838;2023-05-16T10:09:21;6.43;;;4.77;;
32365;SDS011;18837;46.832;16.838;2023-05-16T10:11:51;4.77;;;4.27;;
32365;SDS011;18837;46.832;16.838;2023-05-16T10:17:22;5.10;;;4.60;;
32365;SDS011;18837;46.832;16.838;2023-05-16T10:19:49;4.30;;;3.90;;
32365;SDS011;18837;46.832;16.838;2023-05-16T10:22:16;4.80;;;4.30;;
32365;SDS011;18837;46.832;16.838;2023-05-16T10:24:47;4.93;;;4.53;;
32365;SDS011;18837;46.832;16.838;2023-05-16T10:27:32;7.00;;;4.43;;
32365;SDS011;18837;46.832;16.838;2023-05-16T10:29:58;5.03;;;4.40;;
32365;SDS011;18837;46.832;16.838;2023-05-16T10:32:26;5.00;;;4.53;;
32365;SDS011;18837;46.832;16.838;2023-05-16T10:34:53;5.03;;;4.60;;
32365;SDS011;18837;46.832;16.838;2023-05-16T10:37:25;5.53;;;4.93;;
32365;SDS011;18837;46.832;16.838;2023-05-16T10:39:52;4.57;;;4.17;;
32365;SDS011;18837;46.832;16.838;2023-05-16T10:42:18;4.53;;;4.13;;
32365;SDS011;18837;46.832;16.838;2023-05-16T10:44:45;4.70;;;4.30;;
32365;SDS011;18837;46.832;16.838;2023-05-16T10:47:11;4.93;;;4.53;;
32365;SDS011;18837;46.832;16.838;2023-05-16T10:49:52;5.23;;;4.63;;
32365;SDS011;18837;46.832;16.838;2023-05-16T10:52:19;4.90;;;4.43;;
32365;SDS011;18837;46.832;16.838;2023-05-16T10:54:58;4.93;;;4.53;;
32365;SDS011;18837;46.832;16.838;2023-05-16T10:57:31;4.50;;;4.10;;
32365;SDS011;18837;46.832;16.838;2023-05-16T10:59:58;5.10;;;4.17;;
32365;SDS011;18837;46.832;16.838;2023-05-16T11:02:29;4.33;;;4.00;;
32365;SDS011;18837;46.832;16.838;2023-05-16T11:04:58;4.93;;;4.50;;
32365;SDS011;18837;46.832;16.838;2023-05-16T11:07:32;4.00;;;3.70;;
32365;SDS011;18837;46.832;16.838;2023-05-16T11:12:42;4.83;;;4.33;;
32365;SDS011;18837;46.832;16.838;2023-05-16T11:15:16;4.33;;;3.93;;
32365;SDS011;18837;46.832;16.838;2023-05-16T11:17:47;4.47;;;4.07;;
32365;SDS011;18837;46.832;16.838;2023-05-16T11:25:57;4.43;;;3.90;;
32365;SDS011;18837;46.832;16.838;2023-05-16T11:28:25;4.20;;;3.80;;
32365;SDS011;18837;46.832;16.838;2023-05-16T11:30:52;4.37;;;3.97;;
32365;SDS011;18837;46.832;16.838;2023-05-16T11:33:21;3.93;;;3.63;;
32365;SDS011;18837;46.832;16.838;2023-05-16T11:36:01;4.07;;;3.67;;
32365;SDS011;18837;46.832;16.838;2023-05-16T11:38:31;3.77;;;3.47;;
32365;SDS011;18837;46.832;16.838;2023-05-16T11:41:06;3.77;;;3.47;;
32365;SDS011;18837;46.832;16.838;2023-05-16T11:43:37;4.17;;;3.77;;
32365;SDS011;18837;46.832;16.838;2023-05-16T11:46:13;3.17;;;2.97;;
32365;SDS011;18837;46.832;16.838;2023-05-16T11:48:40;3.50;;;3.20;;
32365;SDS011;18837;46.832;16.838;2023-05-16T11:51:08;3.30;;;2.50;;
32365;SDS011;18837;46.832;16.838;2023-05-16T11:53:34;4.40;;;3.20;;
32365;SDS011;18837;46.832;16.838;2023-05-16T11:56:14;2.87;;;2.67;;
32365;SDS011;18837;46.832;16.838;2023-05-16T12:01:37;2.70;;;2.50;;
32365;SDS011;18837;46.832;16.838;2023-05-16T12:04:12;3.27;;;2.60;;
32365;SDS011;18837;46.832;16.838;2023-05-16T12:06:38;2.60;;;2.40;;
32365;SDS011;18837;46.832;16.838;2023-05-16T12:09:10;2.60;;;2.40;;
32365;SDS011;18837;46.832;16.838;2023-05-16T12:11:37;2.50;;;2.30;;
32365;SDS011;18837;46.832;16.838;2023-05-16T12:14:05;2.53;;;2.33;;
32365;SDS011;18837;46.832;16.838;2023-05-16T12:16:35;2.40;;;2.20;;
32365;SDS011;18837;46.832;16.838;2023-05-16T12:19:02;2.27;;;2.13;;
32365;SDS011;18837;46.832;16.838;2023-05-16T12:21:32;2.50;;;2.30;;
32365;SDS011;18837;46.832;16.838;2023-05-16T12:24:19;2.80;;;2.17;;
32365;SDS011;18837;46.832;16.838;2023-05-16T12:26:45;2.37;;;2.17;;
32365;SDS011;18837;46.832;16.838;2023-05-16T12:29:11;2.50;;;2.30;;
32365;SDS011;18837;46.832;16.838;2023-05-16T12:31:52;2.10;;;2.00;;
32365;SDS011;18837;46.832;16.838;2023-05-16T12:34:30;2.33;;;2.13;;
32365;SDS011;18837;46.832;16.838;2023-05-16T12:36:56;2.50;;;2.30;;
32365;SDS011;18837;46.832;16.838;2023-05-16T12:39:23;2.27;;;2.17;;
32365;SDS011;18837;46.832;16.838;2023-05-16T12:41:49;2.50;;;2.30;;
32365;SDS011;18837;46.832;16.838;2023-05-16T12:44:16;2.10;;;1.90;;
32365;SDS011;18837;46.832;16.838;2023-05-16T12:46:50;2.20;;;2.00;;
32365;SDS011;18837;46.832;16.838;2023-05-16T12:49:25;2.40;;;2.10;;
32365;SDS011;18837;46.832;16.838;2023-05-16T12:51:52;2.70;;;2.13;;
32365;SDS011;18837;46.832;16.838;2023-05-16T12:54:20;2.30;;;2.10;;
32365;SDS011;18837;46.832;16.838;2023-05-16T12:56:49;2.47;;;2.27;;
32365;SDS011;18837;46.832;16.838;2023-05-16T12:59:15;3.17;;;2.30;;
32365;SDS011;18837;46.832;16.838;2023-05-16T13:01:41;2.63;;;2.43;;
32365;SDS011;18837;46.832;16.838;2023-05-16T13:04:17;2.10;;;1.90;;
32365;SDS011;18837;46.832;16.838;2023-05-16T13:09:37;2.40;;;2.20;;
32365;SDS011;18837;46.832;16.838;2023-05-16T13:12:03;2.33;;;2.07;;
32365;SDS011;18837;46.832;16.838;2023-05-16T13:14:31;2.10;;;1.90;;
32365;SDS011;18837;46.832;16.838;2023-05-16T13:16:56;2.27;;;2.07;;
32365;SDS011;18837;46.832;16.838;2023-05-16T13:19:22;2.20;;;2.00;;
32365;SDS011;18837;46.832;16.838;2023-05-16T13:21:48;2.53;;;2.33;;
32365;SDS011;18837;46.832;16.838;2023-05-16T13:24:19;2.63;;;2.10;;
32365;SDS011;18837;46.832;16.838;2023-05-16T13:26:45;2.30;;;2.10;;
32365;SDS011;18837;46.832;16.838;2023-05-16T13:29:11;2.40;;;2.20;;
32365;SDS011;18837;46.832;16.838;2023-05-16T13:31:37;1.90;;;1.80;;
32365;SDS011;18837;46.832;16.838;2023-05-16T13:34:03;2.30;;;2.10;;
32365;SDS011;18837;46.832;16.838;2023-05-16T13:36:28;2.50;;;2.30;;
32365;SDS011;18837;46.832;16.838;2023-05-16T13:42:07;2.20;;;2.00;;
32365;SDS011;18837;46.832;16.838;2023-05-16T13:44:38;2.73;;;2.23;;
32365;SDS011;18837;46.832;16.838;2023-05-16T13:47:04;2.10;;;2.00;;
32365;SDS011;18837;46.832;16.838;2023-05-16T13:49:30;2.13;;;1.93;;
32365;SDS011;18837;46.832;16.838;2023-05-16T13:51:55;2.40;;;2.20;;
32365;SDS011;18837;46.832;16.838;2023-05-16T13:54:22;2.03;;;1.90;;
32365;SDS011;18837;46.832;16.838;2023-05-16T13:56:48;2.20;;;2.00;;
32365;SDS011;18837;46.832;16.838;2023-05-16T13:59:19;2.10;;;1.93;;
32365;SDS011;18837;46.832;16.838;2023-05-16T14:01:45;2.00;;;1.90;;
32365;SDS011;18837;46.832;16.838;2023-05-16T14:04:11;2.07;;;1.97;;
32365;SDS011;18837;46.832;16.838;2023-05-16T14:06:37;2.40;;;2.20;;
32365;SDS011;18837;46.832;16.838;2023-05-16T14:09:03;2.20;;;2.00;;
32365;SDS011;18837;46.832;16.838;2023-05-16T14:11:28;2.20;;;2.00;;
32365;SDS011;18837;46.832;16.838;2023-05-16T14:14:13;2.00;;;1.90;;
32365;SDS011;18837;46.832;16.838;2023-05-16T14:19:30;1.73;;;1.63;;
32365;SDS011;18837;46.832;16.838;2023-05-16T14:21:55;2.10;;;2.00;;
32365;SDS011;18837;46.832;16.838;2023-05-16T14:24:21;1.90;;;1.80;;
32365;SDS011;18837;46.832;16.838;2023-05-16T14:26:47;2.20;;;2.00;;
32365;SDS011;18837;46.832;16.838;2023-05-16T14:29:13;1.90;;;1.80;;
32365;SDS011;18837;46.832;16.838;2023-05-16T14:31:39;3.20;;;1.97;;
32365;SDS011;18837;46.832;16.838;2023-05-16T14:34:10;1.97;;;1.87;;
32365;SDS011;18837;46.832;16.838;2023-05-16T14:36:36;2.23;;;2.10;;
32365;SDS011;18837;46.832;16.838;2023-05-16T14:39:01;2.33;;;2.13;;
32365;SDS011;18837;46.832;16.838;2023-05-16T14:41:27;2.30;;;2.10;;
32365;SDS011;18837;46.832;16.838;2023-05-16T14:43:53;2.13;;;1.93;;
32365;SDS011;18837;46.832;16.838;2023-05-16T14:46:20;1.80;;;1.70;;
32365;SDS011;18837;46.832;16.838;2023-05-16T14:54:43;1.83;;;1.73;;
32365;SDS011;18837;46.832;16.838;2023-05-16T14:57:09;2.10;;;1.90;;
32365;SDS011;18837;46.832;16.838;2023-05-16T14:59:34;1.83;;;1.73;;
32365;SDS011;18837;46.832;16.838;2023-05-16T15:02:00;2.13;;;1.80;;
32365;SDS011;18837;46.832;16.838;2023-05-16T15:04:26;2.07;;;1.90;;
32365;SDS011;18837;46.832;16.838;2023-05-16T15:06:52;2.23;;;2.07;;
32365;SDS011;18837;46.832;16.838;2023-05-16T15:09:24;1.90;;;1.80;;
32365;SDS011;18837;46.832;16.838;2023-05-16T15:11:49;2.17;;;1.93;;
32365;SDS011;18837;46.832;16.838;2023-05-16T15:14:15;1.93;;;1.60;;
32365;SDS011;18837;46.832;16.838;2023-05-16T15:16:41;1.70;;;1.60;;
32365;SDS011;18837;46.832;16.838;2023-05-16T15:19:07;1.83;;;1.63;;
32365;SDS011;18837;46.832;16.838;2023-05-16T15:21:33;2.90;;;1.87;;
32365;SDS011;18837;46.832;16.838;2023-05-16T15:24:14;1.73;;;1.63;;
32365;SDS011;18837;46.832;16.838;2023-05-16T15:26:53;2.20;;;1.50;;
32365;SDS011;18837;46.832;16.838;2023-05-16T15:29:19;1.80;;;1.70;;
32365;SDS011;18837;46.832;16.838;2023-05-16T15:31:45;1.80;;;1.70;;
32365;SDS011;18837;46.832;16.838;2023-05-16T15:34:11;3.10;;;1.70;;
32365;SDS011;18837;46.832;16.838;2023-05-16T15:36:36;1.93;;;1.83;;
32365;SDS011;18837;46.832;16.838;2023-05-16T15:39:02;1.40;;;1.30;;
32365;SDS011;18837;46.832;16.838;2023-05-16T15:41:28;1.80;;;1.70;;
32365;SDS011;18837;46.832;16.838;2023-05-16T15:44:06;2.17;;;1.97;;
32365;SDS011;18837;46.832;16.838;2023-05-16T15:46:31;27.20;;;20.70;;
32365;SDS011;18837;46.832;16.838;2023-05-16T15:48:57;24.07;;;18.40;;
32365;SDS011;18837;46.832;16.838;2023-05-16T15:51:23;21.37;;;16.20;;
32365;SDS011;18837;46.832;16.838;2023-05-16T15:53:49;19.07;;;14.63;;
32365;SDS011;18837;46.832;16.838;2023-05-16T15:56:14;18.33;;;13.63;;
32365;SDS011;18837;46.832;16.838;2023-05-16T15:58:46;15.33;;;13.33;;
32365;SDS011;18837;46.832;16.838;2023-05-16T16:01:30;14.90;;;11.50;;
32365;SDS011;18837;46.832;16.838;2023-05-16T16:03:56;13.33;;;11.20;;
32365;SDS011;18837;46.832;16.838;2023-05-16T16:06:22;12.40;;;10.00;;
32365;SDS011;18837;46.832;16.838;2023-05-16T16:08:48;12.93;;;10.17;;
32365;SDS011;18837;46.832;16.838;2023-05-16T16:11:13;12.67;;;9.50;;
32365;SDS011;18837;46.832;16.838;2023-05-16T16:13:39;9.67;;;8.60;;
32365;SDS011;18837;46.832;16.838;2023-05-16T16:16:05;9.40;;;7.83;;
32365;SDS011;18837;46.832;16.838;2023-05-16T16:18:55;8.77;;;7.47;;
32365;SDS011;18837;46.832;16.838;2023-05-16T16:21:21;10.37;;;7.60;;
32365;SDS011;18837;46.832;16.838;2023-05-16T16:23:47;9.20;;;6.33;;
32365;SDS011;18837;46.832;16.838;2023-05-16T16:26:13;8.37;;;6.73;;